createdAt,value
2022-11-20T00:00:11.069Z,-0.23
2022-11-20T00:01:11.100Z,-0.29
2022-11-20T00:02:11.110Z,-0.36
2022-11-20T00:03:11.042Z,-0.41
2022-11-20T00:04:11.056Z,-0.46
2022-11-20T00:05:11.031Z,-0.46
2022-11-20T00:06:11.049Z,-0.49
2022-11-20T00:07:11.012Z,-0.54
2022-11-20T00:08:11.008Z,-0.56
2022-11-20T00:09:10.988Z,-0.59
2022-11-20T00:10:10.981Z,-0.57
2022-11-20T00:11:15.463Z,-0.56
2022-11-20T00:12:11.937Z,-0.56
2022-11-20T00:13:10.916Z,-0.54
2022-11-20T00:14:10.918Z,-0.56
2022-11-20T00:15:10.899Z,-0.53
2022-11-20T00:16:10.946Z,-0.50
2022-11-20T00:17:10.884Z,-0.49
2022-11-20T00:18:10.892Z,-0.49
2022-11-20T00:19:10.861Z,-0.46
2022-11-20T00:20:10.869Z,-0.44
2022-11-20T00:21:10.891Z,-0.41
2022-11-20T00:22:10.855Z,-0.36
2022-11-20T00:23:10.814Z,-0.35
2022-11-20T00:24:10.838Z,-0.31
2022-11-20T00:25:10.815Z,-0.31
2022-11-20T00:26:10.836Z,-0.29
2022-11-20T00:27:10.768Z,-0.31
2022-11-20T00:28:10.812Z,-0.28
2022-11-20T00:29:10.756Z,-0.28
2022-11-20T00:30:14.637Z,-0.26
2022-11-20T00:31:10.767Z,-0.25
2022-11-20T00:32:10.727Z,-0.25
2022-11-20T00:33:10.723Z,-0.25
2022-11-20T00:34:10.708Z,-0.23
2022-11-20T00:35:10.726Z,-0.25
2022-11-20T00:36:10.722Z,-0.21
2022-11-20T00:37:10.664Z,-0.23
2022-11-20T00:38:10.684Z,-0.23
2022-11-20T00:39:10.654Z,-0.23
2022-11-20T00:40:10.650Z,-0.21
2022-11-20T00:41:10.676Z,-0.21
2022-11-20T00:42:10.619Z,-0.23
2022-11-20T00:43:10.612Z,-0.23
2022-11-20T00:44:10.601Z,-0.23
2022-11-20T00:45:10.615Z,-0.21
2022-11-20T00:46:10.646Z,-0.21
2022-11-20T00:47:10.562Z,-0.21
2022-11-20T00:48:10.551Z,-0.21
2022-11-20T00:49:10.547Z,-0.23
2022-11-20T00:50:10.535Z,-0.23
2022-11-20T00:51:10.506Z,-0.21
2022-11-20T00:52:10.542Z,-0.20
2022-11-20T00:53:10.496Z,-0.18
2022-11-20T00:54:10.482Z,-0.20
2022-11-20T00:55:10.472Z,-0.20
2022-11-20T00:56:10.491Z,-0.17
2022-11-20T00:57:10.483Z,-0.17
2022-11-20T00:58:14.289Z,-0.17
2022-11-20T00:59:10.436Z,-0.17
2022-11-20T01:00:10.415Z,-0.18
2022-11-20T01:01:10.484Z,-0.17
2022-11-20T01:02:10.449Z,-0.17
2022-11-20T01:03:10.376Z,-0.17
2022-11-20T01:04:10.391Z,-0.15
2022-11-20T01:05:10.355Z,-0.13
2022-11-20T01:06:10.365Z,-0.14
2022-11-20T01:07:10.419Z,-0.13
2022-11-20T01:08:10.352Z,-0.13
2022-11-20T01:09:10.322Z,-0.13
2022-11-20T01:10:10.328Z,-0.11
2022-11-20T01:11:10.302Z,-0.11
2022-11-20T01:12:10.346Z,-0.13
2022-11-20T01:13:10.268Z,-0.13
2022-11-20T01:14:10.287Z,-0.11
2022-11-20T01:15:10.256Z,-0.11
2022-11-20T01:16:10.251Z,-0.11
2022-11-20T01:17:10.253Z,-0.10
2022-11-20T01:18:10.224Z,-0.07
2022-11-20T01:19:10.233Z,-0.07
2022-11-20T01:20:10.204Z,-0.03
2022-11-20T01:21:10.188Z,-0.06
2022-11-20T01:22:10.192Z,-0.03
2022-11-20T01:23:10.160Z,-0.02
2022-11-20T01:24:10.143Z,-0.02
2022-11-20T01:25:10.130Z,0.00
2022-11-20T01:26:10.141Z,0.00
2022-11-20T01:27:10.167Z,0.00
2022-11-20T01:28:10.109Z,0.00
2022-11-20T01:29:10.103Z,0.01
2022-11-20T01:30:10.075Z,0.00
2022-11-20T01:31:10.082Z,-0.02
2022-11-20T01:32:10.104Z,0.00
2022-11-20T01:33:10.073Z,-0.03
2022-11-20T01:34:10.032Z,-0.03
2022-11-20T01:35:10.017Z,-0.03
2022-11-20T01:36:10.014Z,-0.03
2022-11-20T01:37:10.044Z,-0.06
2022-11-20T01:38:09.998Z,-0.06
2022-11-20T01:39:09.976Z,-0.07
2022-11-20T01:40:09.968Z,-0.08
2022-11-20T01:41:09.971Z,-0.08
2022-11-20T01:42:10.589Z,-0.10
2022-11-20T01:43:09.953Z,-0.11
2022-11-20T01:44:09.932Z,-0.10
2022-11-20T01:45:09.923Z,-0.11
2022-11-20T01:46:09.907Z,-0.11
2022-11-20T01:47:09.939Z,-0.13
2022-11-20T01:48:09.898Z,-0.13
2022-11-20T01:49:09.877Z,-0.15
2022-11-20T01:50:09.856Z,-0.14
2022-11-20T01:51:09.865Z,-0.14
2022-11-20T01:52:09.887Z,-0.15
2022-11-20T01:53:09.846Z,-0.15
2022-11-20T01:54:09.823Z,-0.17
2022-11-20T01:55:09.800Z,-0.18
2022-11-20T01:56:09.794Z,-0.17
2022-11-20T01:57:09.826Z,-0.20
2022-11-20T01:58:09.782Z,-0.20
2022-11-20T01:59:09.777Z,-0.21
2022-11-20T02:00:09.774Z,-0.21
2022-11-20T02:01:09.764Z,-0.23
2022-11-20T02:02:09.756Z,-0.25
2022-11-20T02:03:09.704Z,-0.26
2022-11-20T02:04:09.710Z,-0.29
2022-11-20T02:05:09.702Z,-0.32
2022-11-20T02:06:09.684Z,-0.34
2022-11-20T02:07:09.731Z,-0.34
2022-11-20T02:08:09.710Z,-0.35
2022-11-20T02:09:09.667Z,-0.38
2022-11-20T02:10:09.649Z,-0.36
2022-11-20T02:11:09.635Z,-0.38
2022-11-20T02:12:09.634Z,-0.39
2022-11-20T02:13:09.650Z,-0.41
2022-11-20T02:14:09.602Z,-0.41
2022-11-20T02:15:09.585Z,-0.43
2022-11-20T02:16:09.585Z,-0.44
2022-11-20T02:17:09.571Z,-0.49
2022-11-20T02:18:09.587Z,-0.52
2022-11-20T02:19:09.547Z,-0.57
2022-11-20T02:20:09.539Z,-0.61
2022-11-20T02:21:09.520Z,-0.67
2022-11-20T02:22:09.521Z,-0.68
2022-11-20T02:23:09.550Z,-0.72
2022-11-20T02:24:09.482Z,-0.72
2022-11-20T02:25:09.483Z,-0.78
2022-11-20T02:26:09.454Z,-0.80
2022-11-20T02:27:09.472Z,-0.85
2022-11-20T02:28:09.489Z,-0.89
2022-11-20T02:29:09.439Z,-0.90
2022-11-20T02:30:09.445Z,-0.91
2022-11-20T02:31:09.430Z,-0.94
2022-11-20T02:32:09.394Z,-0.94
2022-11-20T02:33:09.447Z,-0.97
2022-11-20T02:34:09.389Z,-0.99
2022-11-20T02:35:09.371Z,-1.01
2022-11-20T02:36:09.349Z,-1.01
2022-11-20T02:37:09.343Z,-1.01
2022-11-20T02:38:09.353Z,-1.01
2022-11-20T02:39:09.317Z,-1.02
2022-11-20T02:40:09.320Z,-1.04
2022-11-20T02:41:09.311Z,-1.07
2022-11-20T02:42:09.310Z,-1.05
2022-11-20T02:43:09.335Z,-1.08
2022-11-20T02:44:09.259Z,-1.12
2022-11-20T02:45:09.256Z,-1.14
2022-11-20T02:46:09.271Z,-1.15
2022-11-20T02:47:09.236Z,-1.19
2022-11-20T02:48:09.230Z,-1.20
2022-11-20T02:49:09.247Z,-1.25
2022-11-20T02:50:09.198Z,-1.25
2022-11-20T02:51:09.214Z,-1.26
2022-11-20T02:52:09.191Z,-1.26
2022-11-20T02:53:09.171Z,-1.27
2022-11-20T02:54:09.185Z,-1.27
2022-11-20T02:55:09.159Z,-1.29
2022-11-20T02:56:09.143Z,-1.29
2022-11-20T02:57:09.136Z,-1.32
2022-11-20T02:58:09.137Z,-1.33
2022-11-20T02:59:09.148Z,-1.35
2022-11-20T03:00:09.101Z,-1.37
2022-11-20T03:01:09.103Z,-1.38
2022-11-20T03:02:09.053Z,-1.40
2022-11-20T03:03:09.065Z,-1.41
2022-11-20T03:04:09.078Z,-1.43
2022-11-20T03:05:09.060Z,-1.44
2022-11-20T03:06:09.028Z,-1.46
2022-11-20T03:07:09.098Z,-1.48
2022-11-20T03:08:09.007Z,-1.51
2022-11-20T03:09:09.024Z,-1.54
2022-11-20T03:10:08.991Z,-1.56
2022-11-20T03:11:08.970Z,-1.59
2022-11-20T03:12:08.945Z,-1.61
2022-11-20T03:13:08.932Z,-1.65
2022-11-20T03:14:08.948Z,-1.66
2022-11-20T03:15:08.922Z,-1.72
2022-11-20T03:16:08.909Z,-1.74
2022-11-20T03:17:08.914Z,-1.77
2022-11-20T03:18:08.907Z,-1.79
2022-11-20T03:19:08.928Z,-1.84
2022-11-20T03:20:08.861Z,-1.84
2022-11-20T03:21:08.872Z,-1.87
2022-11-20T03:22:08.841Z,-1.87
2022-11-20T03:23:08.845Z,-1.90
2022-11-20T03:24:08.858Z,-1.94
2022-11-20T03:25:08.826Z,-1.97
2022-11-20T03:26:08.798Z,-1.95
2022-11-20T03:27:08.807Z,-1.97
2022-11-20T03:28:08.777Z,-1.98
2022-11-20T03:29:08.814Z,-2.00
2022-11-20T03:30:08.772Z,-2.01
2022-11-20T03:31:08.752Z,-2.01
2022-11-20T03:32:08.765Z,-2.02
2022-11-20T03:33:08.722Z,-2.05
2022-11-20T03:34:08.747Z,-2.04
2022-11-20T03:35:08.701Z,-2.05
2022-11-20T03:36:08.707Z,-2.04
2022-11-20T03:37:08.688Z,-2.04
2022-11-20T03:38:08.661Z,-2.04
2022-11-20T03:39:08.694Z,-2.08
2022-11-20T03:40:08.634Z,-2.08
2022-11-20T03:41:08.648Z,-2.13
2022-11-20T03:42:08.624Z,-2.13
2022-11-20T03:43:08.631Z,-2.18
2022-11-20T03:44:08.640Z,-2.16
2022-11-20T03:45:08.609Z,-2.19
2022-11-20T03:46:08.579Z,-2.21
2022-11-20T03:47:08.561Z,-2.23
2022-11-20T03:48:08.541Z,-2.25
2022-11-20T03:49:08.570Z,-2.26
2022-11-20T03:50:08.522Z,-2.32
2022-11-20T03:51:08.515Z,-2.34
2022-11-20T03:52:08.510Z,-2.34
2022-11-20T03:53:08.509Z,-2.34
2022-11-20T03:54:08.542Z,-2.35
2022-11-20T03:55:08.482Z,-2.38
2022-11-20T03:56:08.462Z,-2.42
2022-11-20T03:57:08.472Z,-2.47
2022-11-20T03:58:08.456Z,-2.47
2022-11-20T03:59:08.470Z,-2.47
2022-11-20T04:00:08.474Z,-2.47
2022-11-20T04:01:08.419Z,-2.50
2022-11-20T04:02:08.445Z,-2.48
2022-11-20T04:03:08.405Z,-2.53
2022-11-20T04:04:08.376Z,-2.55
2022-11-20T04:05:08.389Z,-2.50
2022-11-20T04:06:08.361Z,-2.48
2022-11-20T04:07:08.404Z,-2.48
2022-11-20T04:08:08.343Z,-2.48
2022-11-20T04:09:08.330Z,-2.50
2022-11-20T04:10:08.329Z,-2.53
2022-11-20T04:11:08.299Z,-2.55
2022-11-20T04:12:08.294Z,-2.53
2022-11-20T04:13:08.283Z,-2.50
2022-11-20T04:14:08.276Z,-2.48
2022-11-20T04:15:08.314Z,-2.50
2022-11-20T04:16:08.226Z,-2.47
2022-11-20T04:17:08.270Z,-2.45
2022-11-20T04:18:08.215Z,-2.45
2022-11-20T04:19:08.229Z,-2.44
2022-11-20T04:20:08.201Z,-2.42
2022-11-20T04:21:08.229Z,-2.41
2022-11-20T04:22:08.159Z,-2.38
2022-11-20T04:23:08.165Z,-2.37
2022-11-20T04:24:08.145Z,-2.35
2022-11-20T04:25:08.138Z,-2.34
2022-11-20T04:26:08.153Z,-2.28
2022-11-20T04:27:08.109Z,-2.28
2022-11-20T04:28:08.117Z,-2.23
2022-11-20T04:29:08.111Z,-2.25
2022-11-20T04:30:08.098Z,-2.23
2022-11-20T04:31:08.129Z,-2.23
2022-11-20T04:32:08.080Z,-2.25
2022-11-20T04:33:08.067Z,-2.25
2022-11-20T04:34:08.034Z,-2.23
2022-11-20T04:35:08.038Z,-2.23
2022-11-20T04:36:08.068Z,-2.22
2022-11-20T04:37:08.030Z,-2.23
2022-11-20T04:38:08.000Z,-2.22
2022-11-20T04:39:07.998Z,-2.23
2022-11-20T04:40:07.977Z,-2.28
2022-11-20T04:41:08.008Z,-2.28
2022-11-20T04:42:07.954Z,-2.26
2022-11-20T04:43:07.946Z,-2.28
2022-11-20T04:44:07.944Z,-2.25
2022-11-20T04:45:07.922Z,-2.28
2022-11-20T04:46:07.941Z,-2.28
2022-11-20T04:47:07.906Z,-2.30
2022-11-20T04:48:07.898Z,-2.32
2022-11-20T04:49:07.875Z,-2.37
2022-11-20T04:50:07.938Z,-2.37
2022-11-20T04:51:07.893Z,-2.40
2022-11-20T04:52:07.845Z,-2.42
2022-11-20T04:53:07.842Z,-2.47
2022-11-20T04:54:07.821Z,-2.50
2022-11-20T04:55:07.826Z,-2.56
2022-11-20T04:56:07.844Z,-2.56
2022-11-20T04:57:12.916Z,-2.60
2022-11-20T04:58:08.785Z,-2.60
2022-11-20T04:59:07.759Z,-2.59
2022-11-20T05:00:07.743Z,-2.62
2022-11-20T05:01:07.817Z,-2.65
2022-11-20T05:02:07.705Z,-2.66
2022-11-20T05:03:07.710Z,-2.71
2022-11-20T05:04:07.714Z,-2.73
2022-11-20T05:05:07.720Z,-2.73
2022-11-20T05:06:07.726Z,-2.71
2022-11-20T05:07:07.704Z,-2.74
2022-11-20T05:08:07.658Z,-2.73
2022-11-20T05:09:07.656Z,-2.74
2022-11-20T05:10:07.636Z,-2.76
2022-11-20T05:11:07.645Z,-2.74
2022-11-20T05:12:07.649Z,-2.74
2022-11-20T05:13:07.621Z,-2.71
2022-11-20T05:14:07.594Z,-2.66
2022-11-20T05:15:07.606Z,-2.63
2022-11-20T05:16:07.576Z,-2.59
2022-11-20T05:17:07.598Z,-2.59
2022-11-20T05:18:07.551Z,-2.53
2022-11-20T05:19:07.545Z,-2.50
2022-11-20T05:20:07.533Z,-2.47
2022-11-20T05:21:07.511Z,-2.44
2022-11-20T05:22:07.532Z,-2.45
2022-11-20T05:23:07.502Z,-2.44
2022-11-20T05:24:07.468Z,-2.42
2022-11-20T05:25:07.486Z,-2.44
2022-11-20T05:26:07.458Z,-2.44
2022-11-20T05:27:07.475Z,-2.45
2022-11-20T05:28:07.434Z,-2.44
2022-11-20T05:29:08.407Z,-2.41
2022-11-20T05:30:07.409Z,-2.40
2022-11-20T05:31:07.422Z,-2.38
2022-11-20T05:32:07.407Z,-2.35
2022-11-20T05:33:07.377Z,-2.35
2022-11-20T05:34:07.375Z,-2.35
2022-11-20T05:35:07.359Z,-2.35
2022-11-20T05:36:07.369Z,-2.34
2022-11-20T05:37:07.358Z,-2.32
2022-11-20T05:38:07.312Z,-2.32
2022-11-20T05:39:07.296Z,-2.28
2022-11-20T05:40:07.295Z,-2.28
2022-11-20T05:41:07.297Z,-2.26
2022-11-20T05:42:07.319Z,-2.26
2022-11-20T05:43:07.277Z,-2.26
2022-11-20T05:44:07.259Z,-2.28
2022-11-20T05:45:07.262Z,-2.28
2022-11-20T05:46:07.245Z,-2.23
2022-11-20T05:47:07.244Z,-2.28
2022-11-20T05:48:07.315Z,-2.25
2022-11-20T05:49:07.208Z,-2.26
2022-11-20T05:50:07.196Z,-2.25
2022-11-20T05:51:07.190Z,-2.23
2022-11-20T05:52:07.220Z,-2.23
2022-11-20T05:53:07.167Z,-2.25
2022-11-20T05:54:07.161Z,-2.23
2022-11-20T05:55:07.136Z,-2.25
2022-11-20T05:56:07.140Z,-2.23
2022-11-20T05:57:07.117Z,-2.23
2022-11-20T05:58:07.137Z,-2.23
2022-11-20T05:59:07.087Z,-2.21
2022-11-20T06:00:07.097Z,-2.21
2022-11-20T06:01:07.083Z,-2.21
2022-11-20T06:02:07.063Z,-2.22
2022-11-20T06:03:07.078Z,-2.22
2022-11-20T06:04:07.031Z,-2.22
2022-11-20T06:05:07.035Z,-2.21
2022-11-20T06:06:07.012Z,-2.22
2022-11-20T06:07:07.055Z,-2.21
2022-11-20T06:08:07.039Z,-2.21
2022-11-20T06:09:06.963Z,-2.19
2022-11-20T06:10:06.975Z,-2.21
2022-11-20T06:11:06.950Z,-2.19
2022-11-20T06:12:06.964Z,-2.19
2022-11-20T06:13:06.944Z,-2.19
2022-11-20T06:14:06.906Z,-2.18
2022-11-20T06:15:06.897Z,-2.19
2022-11-20T06:16:06.898Z,-2.18
2022-11-20T06:17:06.886Z,-2.16
2022-11-20T06:18:06.912Z,-2.15
2022-11-20T06:19:06.875Z,-2.15
2022-11-20T06:20:06.853Z,-2.15
2022-11-20T06:21:06.883Z,-2.15
2022-11-20T06:22:06.832Z,-2.13
2022-11-20T06:23:06.851Z,-2.15
2022-11-20T06:24:06.817Z,-2.15
2022-11-20T06:25:06.781Z,-2.15
2022-11-20T06:26:06.805Z,-2.13
2022-11-20T06:27:06.767Z,-2.13
2022-11-20T06:28:06.784Z,-2.12
2022-11-20T06:29:06.747Z,-2.08
2022-11-20T06:30:06.749Z,-2.08
2022-11-20T06:31:06.739Z,-2.07
2022-11-20T06:32:06.714Z,-2.08
2022-11-20T06:33:06.726Z,-2.08
2022-11-20T06:34:06.695Z,-2.05
2022-11-20T06:35:06.686Z,-2.05
2022-11-20T06:36:10.615Z,-2.04
2022-11-20T06:37:06.690Z,-2.05
2022-11-20T06:38:06.697Z,-2.04
2022-11-20T06:39:06.648Z,-2.07
2022-11-20T06:40:06.637Z,-2.04
2022-11-20T06:41:06.613Z,-2.02
2022-11-20T06:42:06.617Z,-2.02
2022-11-20T06:43:06.635Z,-2.04
2022-11-20T06:44:06.590Z,-2.01
2022-11-20T06:45:06.565Z,-2.04
2022-11-20T06:46:06.585Z,-2.04
2022-11-20T06:47:06.572Z,-2.04
2022-11-20T06:48:06.577Z,-2.04
2022-11-20T06:49:06.517Z,-2.04
2022-11-20T06:50:06.513Z,-2.04
2022-11-20T06:51:06.498Z,-2.04
2022-11-20T06:52:06.489Z,-2.04
2022-11-20T06:53:06.522Z,-2.01
2022-11-20T06:54:06.480Z,-2.01
2022-11-20T06:55:06.470Z,-1.97
2022-11-20T06:56:06.460Z,-1.95
2022-11-20T06:57:06.465Z,-1.92
2022-11-20T06:58:06.443Z,-1.92
2022-11-20T06:59:06.450Z,-1.90
2022-11-20T07:00:06.419Z,-1.84
2022-11-20T07:01:06.453Z,-1.83
2022-11-20T07:02:06.404Z,-1.80
2022-11-20T07:03:06.377Z,-1.79
2022-11-20T07:04:06.393Z,-1.72
2022-11-20T07:05:06.339Z,-1.71
2022-11-20T07:06:06.335Z,-1.65
2022-11-20T07:07:06.415Z,-1.56
2022-11-20T07:08:06.321Z,-1.50
2022-11-20T07:09:11.346Z,-1.40
2022-11-20T07:10:07.300Z,-1.33
2022-11-20T07:11:06.298Z,-1.37
2022-11-20T07:12:06.279Z,-1.40
2022-11-20T07:13:06.268Z,-1.41
2022-11-20T07:14:06.299Z,-1.33
2022-11-20T07:15:06.240Z,-1.35
2022-11-20T07:16:06.238Z,-1.35
2022-11-20T07:17:06.211Z,-1.30
2022-11-20T07:18:06.217Z,-1.11
2022-11-20T07:19:06.236Z,-0.70
2022-11-20T07:20:06.201Z,-0.38
2022-11-20T07:21:06.177Z,0.03
2022-11-20T07:22:06.176Z,0.23
2022-11-20T07:23:06.160Z,0.55
2022-11-20T07:24:06.179Z,0.74
2022-11-20T07:25:06.122Z,0.63
2022-11-20T07:26:06.109Z,0.65
2022-11-20T07:27:06.097Z,0.76
2022-11-20T07:28:06.084Z,0.69
2022-11-20T07:29:06.129Z,0.60
2022-11-20T07:30:06.074Z,0.44
2022-11-20T07:31:06.108Z,0.43
2022-11-20T07:32:06.057Z,0.31
2022-11-20T07:33:06.046Z,-0.03
2022-11-20T07:34:06.074Z,-0.13
2022-11-20T07:35:06.007Z,0.08
2022-11-20T07:36:06.020Z,-0.06
2022-11-20T07:37:10.206Z,-0.28
2022-11-20T07:38:05.999Z,-0.39
2022-11-20T07:39:06.015Z,-0.41
2022-11-20T07:40:05.976Z,-0.50
2022-11-20T07:41:05.973Z,-0.59
2022-11-20T07:42:05.964Z,-0.70
2022-11-20T07:43:05.923Z,-0.71
2022-11-20T07:44:05.964Z,-0.77
2022-11-20T07:45:05.904Z,-0.77
2022-11-20T07:46:05.897Z,-0.80
2022-11-20T07:47:05.890Z,-0.93
2022-11-20T07:48:05.876Z,-0.94
2022-11-20T07:49:05.896Z,-0.91
2022-11-20T07:50:05.861Z,-0.91
2022-11-20T07:51:05.848Z,-0.89
2022-11-20T07:52:05.849Z,-0.91
2022-11-20T07:53:05.838Z,-0.93
2022-11-20T07:54:05.887Z,-0.86
2022-11-20T07:55:05.791Z,-0.86
2022-11-20T07:56:05.794Z,-0.77
2022-11-20T07:57:05.778Z,-0.82
2022-11-20T07:58:05.783Z,-0.75
2022-11-20T07:59:05.788Z,-0.77
2022-11-20T08:00:05.762Z,-0.72
2022-11-20T08:01:05.761Z,-0.72
2022-11-20T08:02:05.717Z,-0.64
2022-11-20T08:03:05.706Z,-0.65
2022-11-20T08:04:05.725Z,-0.68
2022-11-20T08:05:05.686Z,-0.72
2022-11-20T08:06:05.678Z,-0.74
2022-11-20T08:07:05.766Z,-0.70
2022-11-20T08:08:05.658Z,-0.62
2022-11-20T08:09:05.676Z,-0.53
2022-11-20T08:10:05.638Z,-0.46
2022-11-20T08:11:05.645Z,-0.39
2022-11-20T08:12:05.618Z,-0.34
2022-11-20T08:13:05.615Z,-0.26
2022-11-20T08:14:05.590Z,-0.20
2022-11-20T08:15:11.316Z,-0.02
2022-11-20T08:16:06.567Z,0.01
2022-11-20T08:17:05.552Z,0.00
2022-11-20T08:19:06.518Z,0.08
2022-11-20T08:20:05.617Z,0.01
2022-11-20T08:21:05.544Z,0.01
2022-11-20T08:22:05.517Z,0.05
2022-11-20T08:23:05.492Z,0.19
2022-11-20T08:24:05.480Z,0.32
2022-11-20T08:25:05.493Z,0.50
2022-11-20T08:26:05.460Z,0.65
2022-11-20T08:27:05.456Z,0.78
2022-11-20T08:28:15.690Z,0.77
2022-11-20T08:29:06.430Z,0.78
2022-11-20T08:30:05.454Z,0.81
2022-11-20T08:31:05.413Z,0.66
2022-11-20T08:32:05.395Z,0.59
2022-11-20T08:33:05.373Z,0.46
2022-11-20T08:34:09.196Z,0.49
2022-11-20T08:35:05.373Z,0.44
2022-11-20T08:36:05.356Z,0.31
2022-11-20T08:37:05.318Z,0.34
2022-11-20T08:38:05.344Z,0.37
2022-11-20T08:39:05.307Z,0.26
2022-11-20T08:40:05.323Z,0.26
2022-11-20T08:41:05.293Z,0.43
2022-11-20T08:42:05.279Z,0.50
2022-11-20T08:43:05.314Z,0.47
2022-11-20T08:44:05.265Z,0.41
2022-11-20T08:45:05.283Z,0.52
2022-11-20T08:46:05.247Z,0.62
2022-11-20T08:47:05.226Z,0.76
2022-11-20T08:48:05.249Z,0.92
2022-11-20T08:49:05.198Z,0.88
2022-11-20T08:50:05.236Z,0.87
2022-11-20T08:51:05.204Z,0.91
2022-11-20T08:52:05.165Z,0.84
2022-11-20T08:53:05.162Z,0.83
2022-11-20T08:54:05.154Z,0.98
2022-11-20T08:55:05.162Z,1.02
2022-11-20T08:56:05.134Z,1.10
2022-11-20T08:57:05.118Z,1.19
2022-11-20T08:58:05.112Z,1.24
2022-11-20T09:00:07.167Z,1.01
2022-11-20T09:01:05.125Z,0.80
2022-11-20T09:02:05.063Z,0.77
2022-11-20T09:03:05.046Z,0.62
2022-11-20T09:04:05.052Z,0.59
2022-11-20T09:05:05.048Z,0.60
2022-11-20T09:06:05.005Z,0.65
2022-11-20T09:07:05.051Z,0.68
2022-11-20T09:08:04.984Z,0.66
2022-11-20T09:09:18.638Z,0.77
2022-11-20T09:11:05.953Z,0.77
2022-11-20T09:12:04.954Z,0.78
2022-11-20T09:13:04.903Z,0.84
2022-11-20T09:14:04.899Z,0.80
2022-11-20T09:15:04.889Z,0.80
2022-11-20T09:16:04.909Z,0.84
2022-11-20T09:17:04.874Z,0.91
2022-11-20T09:18:04.864Z,0.94
2022-11-20T09:19:34.208Z,0.95
2022-11-20T09:20:05.858Z,1.05
2022-11-20T09:21:04.909Z,1.12
2022-11-20T09:22:04.823Z,1.16
2022-11-20T09:23:04.824Z,1.30
2022-11-20T09:24:04.819Z,1.42
2022-11-20T09:25:04.777Z,1.77
2022-11-20T09:26:04.816Z,1.70
2022-11-20T09:27:04.771Z,1.81
2022-11-20T09:28:04.742Z,1.80
2022-11-20T09:29:04.751Z,1.88
2022-11-20T09:30:04.753Z,1.81
2022-11-20T09:31:04.745Z,1.87
2022-11-20T09:32:04.700Z,2.11
2022-11-20T09:33:04.713Z,2.32
2022-11-20T09:34:04.686Z,2.36
2022-11-20T09:35:04.695Z,2.33
2022-11-20T09:36:04.709Z,2.29
2022-11-20T09:37:07.596Z,2.26
2022-11-20T09:38:04.633Z,2.25
2022-11-20T09:39:04.639Z,2.47
2022-11-20T09:40:04.629Z,2.61
2022-11-20T09:41:04.650Z,2.49
2022-11-20T09:42:04.599Z,2.24
2022-11-20T09:43:04.597Z,2.25
2022-11-20T09:44:04.573Z,2.69
2022-11-20T09:45:04.574Z,3.03
2022-11-20T09:46:04.596Z,3.29
2022-11-20T09:47:04.567Z,3.25
2022-11-20T09:48:04.547Z,3.32
2022-11-20T09:49:04.516Z,3.21
2022-11-20T09:50:04.496Z,3.08
2022-11-20T09:51:04.517Z,3.22
2022-11-20T09:52:04.470Z,3.26
2022-11-20T09:53:04.476Z,3.36
2022-11-20T09:54:04.451Z,3.28
2022-11-20T09:55:04.452Z,3.22
2022-11-20T09:56:04.489Z,3.10
2022-11-20T09:57:04.438Z,3.04
2022-11-20T09:58:04.422Z,3.07
2022-11-20T09:59:04.412Z,2.95
2022-11-20T10:00:04.390Z,2.72
2022-11-20T10:01:04.469Z,2.51
2022-11-20T10:02:04.366Z,2.56
2022-11-20T10:03:04.357Z,2.35
2022-11-20T10:04:04.356Z,2.44
2022-11-20T10:05:04.338Z,2.62
2022-11-20T10:06:04.354Z,2.74
2022-11-20T10:07:30.844Z,2.74
2022-11-20T10:08:05.381Z,2.92
2022-11-20T10:09:04.300Z,2.92
2022-11-20T10:10:04.287Z,3.04
2022-11-20T10:11:04.301Z,2.98
2022-11-20T10:12:04.255Z,3.19
2022-11-20T10:13:05.043Z,3.28
2022-11-20T10:14:04.241Z,3.69
2022-11-20T10:15:04.244Z,3.73
2022-11-20T10:16:04.271Z,3.80
2022-11-20T10:17:04.217Z,3.81
2022-11-20T10:18:04.182Z,4.08
2022-11-20T10:19:04.193Z,3.96
2022-11-20T10:20:04.176Z,3.78
2022-11-20T10:21:04.163Z,4.16
2022-11-20T10:22:04.166Z,4.55
2022-11-20T10:23:04.133Z,4.68
2022-11-20T10:24:04.128Z,5.10
2022-11-20T10:25:04.112Z,5.21
2022-11-20T10:26:04.087Z,5.43
2022-11-20T10:27:04.115Z,5.43
2022-11-20T10:28:04.059Z,5.20
2022-11-20T10:29:08.685Z,4.86
2022-11-20T10:30:05.043Z,4.82
2022-11-20T10:31:04.053Z,5.00
2022-11-20T10:32:04.081Z,4.99
2022-11-20T10:33:04.063Z,4.80
2022-11-20T10:34:12.447Z,5.28
2022-11-20T10:35:05.004Z,5.12
2022-11-20T10:36:03.988Z,5.14
2022-11-20T10:37:04.013Z,5.33
2022-11-20T10:38:03.979Z,5.35
2022-11-20T10:39:03.951Z,5.28
2022-11-20T10:40:03.928Z,5.46
2022-11-20T10:41:03.938Z,5.79
2022-11-20T10:42:03.951Z,5.84
2022-11-20T10:43:03.930Z,5.91
2022-11-20T10:44:03.893Z,5.64
2022-11-20T10:45:06.959Z,4.94
2022-11-20T10:46:03.873Z,4.55
2022-11-20T10:47:03.909Z,4.56
2022-11-20T10:48:03.839Z,4.55
2022-11-20T10:49:03.858Z,4.37
2022-11-20T10:50:03.834Z,4.26
2022-11-20T10:51:03.814Z,4.28
2022-11-20T10:52:03.841Z,4.32
2022-11-20T10:53:03.794Z,4.16
2022-11-20T10:54:03.794Z,4.01
2022-11-20T10:55:03.769Z,4.19
2022-11-20T10:56:03.774Z,3.88
2022-11-20T10:57:03.805Z,3.92
2022-11-20T10:58:03.736Z,3.96
2022-11-20T10:59:03.736Z,3.91
2022-11-20T11:00:03.711Z,3.70
2022-11-20T11:01:03.745Z,3.65
2022-11-20T11:02:03.714Z,3.91
2022-11-20T11:03:03.681Z,3.73
2022-11-20T11:04:03.659Z,3.83
2022-11-20T11:05:03.689Z,3.78
2022-11-20T11:06:03.659Z,3.59
2022-11-20T11:07:03.718Z,3.53
2022-11-20T11:08:03.636Z,3.69
2022-11-20T11:09:03.618Z,3.55
2022-11-20T11:10:03.622Z,3.69
2022-11-20T11:11:03.616Z,3.77
2022-11-20T11:12:07.151Z,3.70
2022-11-20T11:13:03.599Z,3.98
2022-11-20T11:14:03.547Z,3.96
2022-11-20T11:15:03.554Z,4.06
2022-11-20T11:16:03.519Z,4.02
2022-11-20T11:17:03.559Z,3.91
2022-11-20T11:18:03.500Z,3.87
2022-11-20T11:19:03.523Z,3.50
2022-11-20T11:20:03.500Z,3.18
2022-11-20T11:21:03.482Z,2.92
2022-11-20T11:22:03.492Z,2.95
2022-11-20T11:23:03.457Z,3.45
2022-11-20T11:24:26.953Z,3.99
2022-11-20T11:25:04.428Z,4.73
2022-11-20T11:26:03.427Z,5.08
2022-11-20T11:27:03.446Z,5.33
2022-11-20T11:28:03.387Z,5.33
2022-11-20T11:29:03.390Z,5.32
2022-11-20T11:30:03.374Z,5.53
2022-11-20T11:31:03.391Z,5.72
2022-11-20T11:32:03.345Z,4.62
2022-11-20T11:33:03.397Z,4.77
2022-11-20T11:34:03.335Z,4.40
2022-11-20T11:35:03.344Z,4.59
2022-11-20T11:36:03.331Z,4.97
2022-11-20T11:37:03.277Z,4.82
2022-11-20T11:38:03.303Z,5.00
2022-11-20T11:39:03.271Z,5.41
2022-11-20T11:40:23.301Z,6.02
2022-11-20T11:41:04.240Z,6.89
2022-11-20T11:42:03.222Z,6.81
2022-11-20T11:43:03.260Z,6.79
2022-11-20T11:44:03.210Z,6.81
2022-11-20T11:45:03.216Z,6.81
2022-11-20T11:46:03.188Z,6.26
2022-11-20T11:47:03.197Z,6.33
2022-11-20T11:48:03.210Z,6.35
2022-11-20T11:49:03.154Z,6.28
2022-11-20T11:50:03.160Z,5.90
2022-11-20T11:51:03.142Z,6.02
2022-11-20T11:52:03.162Z,6.30
2022-11-20T11:53:03.165Z,6.08
2022-11-20T11:54:03.087Z,6.28
2022-11-20T11:55:07.164Z,6.63
2022-11-20T11:56:04.069Z,6.82
2022-11-20T11:57:03.091Z,6.79
2022-11-20T11:58:03.103Z,6.62
2022-11-20T11:59:03.090Z,7.17
2022-11-20T12:00:03.041Z,7.17
2022-11-20T12:01:03.053Z,7.02
2022-11-20T12:02:03.065Z,6.96
2022-11-20T12:03:03.039Z,7.15
2022-11-20T12:04:02.991Z,7.13
2022-11-20T12:05:02.975Z,7.38
2022-11-20T12:06:02.999Z,6.87
2022-11-20T12:07:18.301Z,6.44
2022-11-20T12:08:08.113Z,6.44
2022-11-20T12:09:03.908Z,6.11
2022-11-20T12:10:02.935Z,6.26
2022-11-20T12:11:02.928Z,6.45
2022-11-20T12:12:02.908Z,7.03
2022-11-20T12:13:02.875Z,7.25
2022-11-20T12:14:02.900Z,7.36
2022-11-20T12:15:02.855Z,7.36
2022-11-20T12:16:02.841Z,7.69
2022-11-20T12:17:02.872Z,7.45
2022-11-20T12:18:02.828Z,6.56
2022-11-20T12:19:02.845Z,6.44
2022-11-20T12:20:02.808Z,6.51
2022-11-20T12:21:02.797Z,6.56
2022-11-20T12:22:05.157Z,6.75
2022-11-20T12:23:02.781Z,6.96
2022-11-20T12:24:02.801Z,7.02
2022-11-20T12:25:02.752Z,6.70
2022-11-20T12:26:02.739Z,6.41
2022-11-20T12:27:02.752Z,6.72
2022-11-20T12:28:02.703Z,6.59
2022-11-20T12:29:02.776Z,6.44
2022-11-20T12:30:02.690Z,6.46
2022-11-20T12:31:02.696Z,6.04
2022-11-20T12:32:02.669Z,6.36
2022-11-20T12:33:02.650Z,6.57
2022-11-20T12:34:02.690Z,6.49
2022-11-20T12:35:05.061Z,6.38
2022-11-20T12:36:03.630Z,6.45
2022-11-20T12:37:02.602Z,6.45
2022-11-20T12:38:02.602Z,6.57
2022-11-20T12:39:02.640Z,6.17
2022-11-20T12:40:02.578Z,5.93
2022-11-20T12:41:02.577Z,6.08
2022-11-20T12:42:02.559Z,5.99
2022-11-20T12:43:02.537Z,5.80
2022-11-20T12:44:02.596Z,5.72
2022-11-20T12:45:02.518Z,5.90
2022-11-20T12:46:02.511Z,5.72
2022-11-20T12:47:02.497Z,6.01
2022-11-20T12:48:02.502Z,5.80
2022-11-20T12:49:02.505Z,5.47
2022-11-20T12:50:02.444Z,5.43
2022-11-20T12:51:17.911Z,5.57
2022-11-20T12:52:03.435Z,5.44
2022-11-20T12:53:02.440Z,5.26
2022-11-20T12:54:02.410Z,5.47
2022-11-20T12:55:02.443Z,5.75
2022-11-20T12:56:02.394Z,5.93
2022-11-20T12:57:03.926Z,5.84
2022-11-20T12:58:02.361Z,5.82
2022-11-20T12:59:02.375Z,5.57
2022-11-20T13:00:02.396Z,5.50
2022-11-20T13:01:02.392Z,5.53
2022-11-20T13:02:02.328Z,5.79
2022-11-20T13:03:02.330Z,5.84
2022-11-20T13:04:06.329Z,5.43
2022-11-20T13:05:03.352Z,5.20